Time;durP1;ratioP1;P1;durP2;ratioP2;P2;SDS_P1;SDS_P2;PMS_P1;PMS_P2;Temp;Humidity;BMP_temperature;BMP_pressure;BME280_temperature;BME280_humidity;BME280_pressure;Samples;Min_cycle;Max_cycle;Signal;HPM_P1;HPM_P2
2023/05/17 05:39:26;;;;;;;;;;;14.50;92.20;;;;;;5502118;23;20434;-96
2023/05/17 05:42:20;;;;;;;;;;;14.40;92.40;;;;;;4961931;29;19966;-96
2023/05/17 07:48:55;;;;;;;;;;;16.80;81.40;;;;;;5379291;23;19927;-96
2023/05/17 07:51:21;;;;;;;;;;;16.90;81.30;;;;;;4965349;29;20378;-96
2023/05/17 17:48:28;;;;;;;;;;;18.20;69.10;;;;;;5538812;23;19945;-96
2023/05/17 17:50:58;;;;;;;;;;;18.20;69.60;;;;;;4982272;28;19909;-96
2023/05/17 17:53:29;;;;;;;;;;;18.20;70.80;;;;;;4962279;29;19914;-96
2023/05/17 17:55:55;;;;;;;;;;;18.00;72.40;;;;;;4961598;29;19917;-96
2023/05/17 17:58:27;;;;;;;;;;;18.00;71.60;;;;;;4965127;29;19910;-96
2023/05/17 18:00:58;;;;;;;;;;;18.00;70.90;;;;;;4981673;29;19910;-96
2023/05/17 18:03:28;;;;;;;;;;;18.00;70.70;;;;;;4978306;29;19996;-96
2023/05/17 18:05:56;;;;;;;;;;;18.00;70.50;;;;;;4962761;28;19918;-96
2023/05/17 18:08:27;;;;;;;;;;;17.80;71.40;;;;;;4964757;29;19910;-96
2023/05/17 18:11:00;;;;;;;;;;;17.80;73.60;;;;;;4964558;29;19910;-96
2023/05/17 18:13:27;;;;;;;;;;;17.80;76.50;;;;;;4964885;29;19916;-96
2023/05/17 18:15:58;;;;;;;;;;;17.70;78.80;;;;;;4964652;29;19915;-96
2023/05/17 18:18:26;;;;;;;;;;;17.60;79.30;;;;;;4964339;29;19914;-96
2023/05/17 18:20:56;;;;;;;;;;;17.50;78.70;;;;;;4963622;29;19957;-96
2023/05/17 18:23:34;;;;;;;;;;;17.50;79.30;;;;;;4963124;29;19911;-96
2023/05/17 18:26:01;;;;;;;;;;;17.50;82.90;;;;;;4978875;29;19934;-96
2023/05/17 18:28:30;;;;;;;;;;;17.40;84.20;;;;;;4963125;29;19918;-98
2023/05/17 18:30:57;;;;;;;;;;;17.30;84.20;;;;;;4962550;29;19941;-96
2023/05/17 18:33:36;;;;;;;;;;;17.30;83.80;;;;;;4968088;29;19923;-96
2023/05/17 18:36:07;;;;;;;;;;;17.20;82.20;;;;;;4944802;29;19895;-96
2023/05/17 18:38:57;;;;;;;;;;;17.10;83.40;;;;;;4945072;29;19910;-96
2023/05/17 18:41:24;;;;;;;;;;;17.10;84.20;;;;;;4960943;29;19901;-96
2023/05/17 18:43:53;;;;;;;;;;;17.00;83.90;;;;;;4944781;29;19922;-96
2023/05/17 18:46:21;;;;;;;;;;;17.10;83.50;;;;;;4943907;29;19949;-96
2023/05/17 18:48:59;;;;;;;;;;;17.00;84.40;;;;;;4956419;29;19903;-96
2023/05/17 18:51:32;;;;;;;;;;;17.00;84.90;;;;;;4960757;29;19922;-96
2023/05/17 18:53:58;;;;;;;;;;;17.00;83.90;;;;;;4960825;29;19935;-96
2023/05/17 18:56:43;;;;;;;;;;;;;;;;;;;;;
2023/05/17 18:59:10;;;;;;;;;;;16.90;81.80;;;;;;4946201;29;19942;-96
2023/05/17 19:01:40;;;;;;;;;;;16.80;82.00;;;;;;4943858;29;19911;-96
2023/05/17 19:04:10;;;;;;;;;;;16.80;81.50;;;;;;4944311;29;19895;-96
2023/05/17 19:06:41;;;;;;;;;;;16.80;81.30;;;;;;4960730;29;19911;-96
2023/05/17 19:09:08;;;;;;;;;;;16.80;80.60;;;;;;4944262;29;19975;-96
2023/05/17 19:11:38;;;;;;;;;;;16.80;79.30;;;;;;4944031;29;19915;-96
2023/05/17 19:14:06;;;;;;;;;;;16.80;79.10;;;;;;4944363;29;19910;-96
2023/05/17 19:16:33;;;;;;;;;;;16.80;83.10;;;;;;4960219;29;19915;-96
2023/05/17 19:19:05;;;;;;;;;;;16.80;85.50;;;;;;4959026;29;19911;-96
2023/05/17 19:21:32;;;;;;;;;;;16.80;85.70;;;;;;4960095;29;19921;-96
2023/05/17 19:24:17;;;;;;;;;;;16.80;84.90;;;;;;4960557;29;19942;-96
2023/05/17 19:26:45;;;;;;;;;;;16.80;83.70;;;;;;4928704;29;19899;-96
2023/05/17 19:29:13;;;;;;;;;;;16.80;82.80;;;;;;4944141;29;19926;-96
2023/05/17 19:31:39;;;;;;;;;;;16.70;82.50;;;;;;4960502;29;19911;-96
2023/05/17 19:34:11;;;;;;;;;;;16.60;82.10;;;;;;4960180;28;19899;-96
2023/05/17 19:36:46;;;;;;;;;;;16.70;81.70;;;;;;4943762;29;19938;-96
2023/05/17 19:39:14;;;;;;;;;;;16.70;82.10;;;;;;4943312;29;19935;-96
2023/05/17 19:41:47;;;;;;;;;;;16.70;83.10;;;;;;4960415;29;20012;-96
2023/05/17 19:44:15;;;;;;;;;;;16.60;83.50;;;;;;4943404;29;19915;-96
2023/05/17 19:46:42;;;;;;;;;;;16.60;84.10;;;;;;4943144;29;19911;-96
2023/05/17 19:49:13;;;;;;;;;;;16.60;84.60;;;;;;4942839;29;19923;-96
2023/05/17 19:51:44;;;;;;;;;;;16.50;84.30;;;;;;4943079;29;19939;-96
2023/05/17 19:54:12;;;;;;;;;;;16.50;85.10;;;;;;4942601;29;19910;-96
2023/05/17 19:56:39;;;;;;;;;;;16.40;85.60;;;;;;4942659;29;19918;-96
2023/05/17 19:59:12;;;;;;;;;;;16.40;85.40;;;;;;4941989;29;19953;-96
2023/05/17 20:01:38;;;;;;;;;;;16.40;85.20;;;;;;4942756;29;19911;-96
2023/05/17 20:04:11;;;;;;;;;;;16.40;83.90;;;;;;4941705;29;19973;-96
2023/05/17 20:06:37;;;;;;;;;;;16.30;83.70;;;;;;4942320;29;19979;-96
2023/05/17 20:09:07;;;;;;;;;;;16.30;83.60;;;;;;4941622;29;19934;-96
2023/05/17 20:11:33;;;;;;;;;;;16.30;83.40;;;;;;4942607;29;19938;-96
2023/05/17 20:14:11;;;;;;;;;;;16.30;82.90;;;;;;4942498;29;19919;-96
2023/05/17 20:16:40;;;;;;;;;;;16.40;82.90;;;;;;4942581;29;19925;-96
2023/05/17 20:19:11;;;;;;;;;;;16.40;82.90;;;;;;4942279;29;19895;-96
2023/05/17 20:21:42;;;;;;;;;;;16.40;82.60;;;;;;4958698;29;19911;-96
2023/05/17 20:24:11;;;;;;;;;;;16.40;82.10;;;;;;4958790;29;19918;-96
2023/05/17 20:26:45;;;;;;;;;;;16.40;82.10;;;;;;4942295;29;19958;-96
2023/05/17 20:29:25;;;;;;;;;;;16.30;82.30;;;;;;4941639;29;19915;-96
2023/05/17 20:31:51;;;;;;;;;;;16.30;82.80;;;;;;4941362;29;19957;-96
2023/05/17 20:34:17;;;;;;;;;;;16.30;83.20;;;;;;4941150;29;19917;-96
2023/05/17 20:36:45;;;;;;;;;;;16.20;83.60;;;;;;4941504;29;19994;-96
2023/05/17 20:39:14;;;;;;;;;;;16.20;84.60;;;;;;4940793;29;19961;-96
2023/05/17 20:41:43;;;;;;;;;;;16.20;86.20;;;;;;4942037;29;19918;-96
2023/05/17 20:44:17;;;;;;;;;;;16.20;86.80;;;;;;4940767;29;19934;-96
2023/05/17 20:46:48;;;;;;;;;;;16.10;87.00;;;;;;4957578;29;19910;-96
2023/05/17 20:49:16;;;;;;;;;;;16.10;87.10;;;;;;4940065;29;19985;-96
2023/05/17 20:51:48;;;;;;;;;;;16.10;86.80;;;;;;4924419;29;19943;-96
2023/05/17 20:54:15;;;;;;;;;;;16.10;86.20;;;;;;4942535;29;19939;-96
2023/05/17 20:56:43;;;;;;;;;;;16.10;85.40;;;;;;4942219;29;19918;-96
2023/05/17 20:59:09;;;;;;;;;;;16.10;85.20;;;;;;4941898;29;19981;-96
2023/05/17 21:01:40;;;;;;;;;;;16.10;84.20;;;;;;4941702;29;19962;-96
2023/05/17 21:04:09;;;;;;;;;;;16.10;83.80;;;;;;4942522;29;19938;-96
2023/05/17 21:06:41;;;;;;;;;;;16.20;83.30;;;;;;4958812;29;19950;-96
2023/05/17 21:09:13;;;;;;;;;;;16.10;82.60;;;;;;4942493;29;19925;-96
2023/05/17 21:11:46;;;;;;;;;;;16.20;82.50;;;;;;4958371;29;19895;-96
2023/05/17 21:14:21;;;;;;;;;;;16.20;81.70;;;;;;4942864;29;19895;-96
2023/05/17 21:16:51;;;;;;;;;;;16.20;81.60;;;;;;4941116;29;19917;-96
2023/05/17 21:19:19;;;;;;;;;;;16.20;81.00;;;;;;4942866;29;19950;-96
2023/05/17 21:21:54;;;;;;;;;;;16.20;80.50;;;;;;4959772;29;19986;-97
2023/05/17 21:24:29;;;;;;;;;;;16.20;79.90;;;;;;4943064;29;19955;-96
2023/05/17 21:27:02;;;;;;;;;;;16.20;79.10;;;;;;4939862;29;19911;-96
2023/05/17 21:29:30;;;;;;;;;;;16.20;78.30;;;;;;4943367;29;19919;-97
2023/05/17 21:32:12;;;;;;;;;;;16.30;77.80;;;;;;4959471;29;19914;-96
2023/05/17 21:34:43;;;;;;;;;;;16.30;76.50;;;;;;4943439;29;19899;-97
2023/05/17 21:37:12;;;;;;;;;;;16.30;75.80;;;;;;4943603;29;19922;-96
2023/05/17 21:39:45;;;;;;;;;;;16.30;75.50;;;;;;4951006;28;19915;-96
2023/05/17 21:42:16;;;;;;;;;;;16.30;75.30;;;;;;4960124;28;19914;-96
2023/05/17 21:44:58;;;;;;;;;;;16.30;75.20;;;;;;4959985;28;19915;-96
2023/05/17 21:47:37;;;;;;;;;;;16.30;74.10;;;;;;4957159;29;19895;-96
2023/05/17 21:53:42;;;;;;;;;;;16.30;73.70;;;;;;4955600;29;19914;-96
2023/05/17 21:56:15;;;;;;;;;;;16.20;73.50;;;;;;4940522;29;20020;-96
2023/05/17 21:58:43;;;;;;;;;;;16.10;73.20;;;;;;4922724;29;19971;-96
2023/05/17 22:01:12;;;;;;;;;;;16.10;73.40;;;;;;4922695;29;19919;-96
2023/05/17 22:03:40;;;;;;;;;;;16.10;73.50;;;;;;4926163;29;19973;-96
2023/05/17 22:06:26;;;;;;;;;;;16.10;74.00;;;;;;4942719;29;19967;-96
2023/05/17 22:09:04;;;;;;;;;;;16.00;74.70;;;;;;4925437;29;19915;-96
2023/05/17 22:11:37;;;;;;;;;;;16.00;74.60;;;;;;4926051;29;19912;-96
2023/05/17 22:14:11;;;;;;;;;;;16.00;74.70;;;;;;4925981;29;19935;-96
2023/05/17 22:16:41;;;;;;;;;;;15.90;74.80;;;;;;4926184;29;19912;-96
2023/05/17 22:19:12;;;;;;;;;;;15.90;75.10;;;;;;4925340;29;19918;-96
2023/05/17 22:21:41;;;;;;;;;;;15.90;74.80;;;;;;4925809;29;19911;-96
2023/05/17 22:24:10;;;;;;;;;;;15.90;74.50;;;;;;4925333;29;19920;-96
2023/05/17 22:26:41;;;;;;;;;;;15.80;74.50;;;;;;4925739;29;19918;-96
2023/05/17 22:29:08;;;;;;;;;;;15.80;74.30;;;;;;4942801;29;19915;-96
2023/05/17 22:31:41;;;;;;;;;;;15.80;74.40;;;;;;4925986;29;19911;-96
2023/05/17 22:34:17;;;;;;;;;;;15.80;74.20;;;;;;4925733;29;19895;-96
2023/05/17 22:36:45;;;;;;;;;;;15.70;74.30;;;;;;4925677;29;19896;-96
2023/05/17 22:39:19;;;;;;;;;;;15.80;74.50;;;;;;4941911;29;19911;-96
2023/05/17 22:41:51;;;;;;;;;;;15.70;74.60;;;;;;4925557;29;19970;-96
2023/05/17 22:44:22;;;;;;;;;;;15.80;74.60;;;;;;4926073;29;19936;-96
2023/05/17 22:47:03;;;;;;;;;;;15.70;74.80;;;;;;4910086;29;19906;-96
2023/05/17 22:49:34;;;;;;;;;;;15.70;74.10;;;;;;4925854;29;19922;-96
2023/05/17 22:52:05;;;;;;;;;;;15.70;73.50;;;;;;4941451;29;19927;-96
2023/05/17 22:54:35;;;;;;;;;;;15.70;73.20;;;;;;4933328;29;19907;-96
2023/05/17 22:57:16;;;;;;;;;;;15.60;73.40;;;;;;4928571;29;19942;-96
2023/05/17 22:59:44;;;;;;;;;;;15.60;73.30;;;;;;4944394;29;19935;-96
2023/05/17 23:02:11;;;;;;;;;;;15.60;73.30;;;;;;4942616;29;19919;-96
2023/05/17 23:04:44;;;;;;;;;;;15.70;73.20;;;;;;4960904;29;19918;-96
2023/05/17 23:07:22;;;;;;;;;;;15.60;73.20;;;;;;4944744;29;19895;-96
2023/05/17 23:09:53;;;;;;;;;;;15.60;73.10;;;;;;4945226;29;19899;-96
2023/05/17 23:12:24;;;;;;;;;;;15.60;73.00;;;;;;4944307;29;19939;-96
2023/05/17 23:15:02;;;;;;;;;;;15.60;73.00;;;;;;4959760;29;19902;-96
2023/05/17 23:17:32;;;;;;;;;;;15.60;72.90;;;;;;4944270;29;19938;-96
2023/05/17 23:20:05;;;;;;;;;;;15.60;73.00;;;;;;4943942;29;19911;-96
2023/05/17 23:22:33;;;;;;;;;;;15.50;73.10;;;;;;4943969;29;19918;-96
2023/05/17 23:25:06;;;;;;;;;;;15.50;72.90;;;;;;4943271;29;19980;-96
2023/05/17 23:27:37;;;;;;;;;;;15.50;72.70;;;;;;4943322;29;19895;-96
2023/05/17 23:30:14;;;;;;;;;;;15.50;73.00;;;;;;4943667;29;19918;-96
2023/05/17 23:32:47;;;;;;;;;;;15.50;73.10;;;;;;4943447;29;19902;-96
2023/05/17 23:35:21;;;;;;;;;;;15.50;73.50;;;;;;4960200;29;19911;-96
2023/05/17 23:37:49;;;;;;;;;;;15.50;73.50;;;;;;4943893;29;19915;-96
2023/05/17 23:40:19;;;;;;;;;;;15.50;73.20;;;;;;4943659;29;19921;-96
2023/05/17 23:42:58;;;;;;;;;;;15.50;73.20;;;;;;4959387;29;19915;-96
2023/05/17 23:45:26;;;;;;;;;;;15.40;73.40;;;;;;4959926;29;20382;-96
2023/05/17 23:47:53;;;;;;;;;;;15.50;73.30;;;;;;4943335;29;19922;-96
2023/05/17 23:50:29;;;;;;;;;;;15.40;73.10;;;;;;4942599;29;19911;-96
2023/05/17 23:52:57;;;;;;;;;;;15.40;73.30;;;;;;4942238;29;19936;-96
2023/05/17 23:55:27;;;;;;;;;;;15.40;73.90;;;;;;4942768;29;19990;-96
2023/05/17 23:57:56;;;;;;;;;;;15.40;73.60;;;;;;4942464;29;19918;-96
